Main page
METAR-TAF:

METAR-TAF

Airports :

Oban Airport

Oban, Scotland

latitude: 56-27-49N, longitude: 5-24-00W, elevation: 7 m

Current weather observation

The report was made 14 hours and 54 minutes ago, at 15:20 UTC
Wind 8 kt from the South
Temperature 17°C
Humidity 94%
Pressure 1008 hPa
Visibility 10 km or more
Broken clouds at a height of 1000 ft
Broken clouds at a height of 3000 ft

METAR: EGEO 251520Z 17008KT 9999 BKN010 BKN030 17/16 Q1008

Time: 07:14 (06:14 UTC)

Forecast

The report was made 16 hours and 15 minutes ago, at 13:59 UTC
Forecast valid from 25 at 15 UTC to 25 at 17 UTC
Wind 9 kt from the South
Visibility 10 km or more
Scattered clouds at a height of 1100 ft
Broken clouds at a height of 2000 ft
Temporary
from 25 at 15 UTC to 25 at 17 UTC
Visibility: 6000 m
Broken clouds at a height of 900 ft
light rain, drizzle

TAF: EGEO 251359Z 2515/2517 17009KT 9999 SCT011 BKN020 TEMPO 2515/2517 6000 -RADZ BKN009

Weather observations and forecasts of more than 4000 airports (METAR and TAF reports).

The available stations are represented by yellow and red dots on the map.

Hover mouse over dot to see the name of the station.

Then click to see weather observations and forecasts.

To change the map : click on the green buttons with a black cross to zoom in, on the green button with a dash to zoom out, or on the green arrows for adjacent maps.


METAR-TAF: